Time;durP1;ratioP1;P1;durP2;ratioP2;P2;SDS_P1;SDS_P2;PMS_P1;PMS_P2;Temp;Humidity;BMP_temperature;BMP_pressure;BME280_temperature;BME280_humidity;BME280_pressure;Samples;Min_cycle;Max_cycle;Signal;HPM_P1;HPM_P2
2022/06/30 00:00:29;;;;;;;3.53;2.63;;;20.10;99.90;;;;;;5093069;28;20109;-72
2022/06/30 00:02:54;;;;;;;3.53;3.13;;;20.10;99.90;;;;;;5058349;28;20048;-72
2022/06/30 00:05:20;;;;;;;3.10;2.60;;;20.00;99.90;;;;;;5092566;28;20036;-72
2022/06/30 00:07:46;;;;;;;3.30;3.00;;;20.00;99.90;;;;;;5092889;28;20820;-72
2022/06/30 00:10:12;;;;;;;4.55;3.10;;;19.90;99.90;;;;;;5092956;28;20058;-72
2022/06/30 00:12:41;;;;;;;5.13;3.03;;;19.90;99.90;;;;;;5070941;28;20052;-72
2022/06/30 00:15:07;;;;;;;3.40;3.03;;;19.90;99.90;;;;;;5072492;28;20059;-73
2022/06/30 00:17:34;;;;;;;3.55;3.03;;;19.80;99.90;;;;;;5072443;28;20045;-72
2022/06/30 00:20:00;;;;;;;6.20;3.10;;;19.70;99.90;;;;;;5072332;28;20052;-72
2022/06/30 00:22:26;;;;;;;3.75;2.78;;;19.70;99.90;;;;;;5070832;28;20486;-73
2022/06/30 00:24:52;;;;;;;4.82;3.03;;;19.60;99.90;;;;;;5072018;28;20532;-72
2022/06/30 00:27:18;;;;;;;3.20;2.90;;;19.50;99.90;;;;;;5072310;28;20048;-72
2022/06/30 00:29:44;;;;;;;3.80;2.83;;;19.40;99.90;;;;;;5072254;28;20040;-72
2022/06/30 00:32:10;;;;;;;4.57;2.83;;;19.40;99.90;;;;;;5071780;28;20403;-72
2022/06/30 00:34:36;;;;;;;4.28;3.17;;;19.40;99.90;;;;;;5071724;28;20060;-72
2022/06/30 00:37:02;;;;;;;3.60;2.80;;;19.30;99.90;;;;;;5071968;28;20063;-72
2022/06/30 00:39:29;;;;;;;3.67;3.10;;;19.30;99.90;;;;;;5070985;28;20056;-72
2022/06/30 00:41:55;;;;;;;3.42;2.92;;;19.20;99.90;;;;;;5071976;28;20041;-72
2022/06/30 00:44:21;;;;;;;4.05;3.05;;;19.20;99.90;;;;;;5070774;28;20059;-72
2022/06/30 00:46:48;;;;;;;3.67;3.00;;;19.10;99.90;;;;;;5071917;28;20075;-72
2022/06/30 00:49:15;;;;;;;4.75;3.40;;;19.10;99.90;;;;;;5071946;28;20513;-72
2022/06/30 00:51:41;;;;;;;4.32;3.30;;;19.10;99.90;;;;;;5071107;28;20052;-73
2022/06/30 00:54:07;;;;;;;4.63;3.10;;;19.00;99.90;;;;;;5071735;28;20044;-72
2022/06/30 00:56:39;;;;;;;3.80;3.40;;;18.90;99.90;;;;;;5071558;28;20044;-72
2022/06/30 00:59:07;;;;;;;3.90;3.40;;;18.90;99.90;;;;;;5071282;28;20102;-72
2022/06/30 01:01:33;;;;;;;3.92;3.00;;;18.90;99.90;;;;;;5071525;28;20080;-72
2022/06/30 01:04:00;;;;;;;3.42;2.92;;;18.80;99.90;;;;;;5071624;28;20146;-72
2022/06/30 01:06:27;;;;;;;4.18;3.55;;;18.80;99.90;;;;;;5071563;28;20094;-72
2022/06/30 01:08:53;;;;;;;6.47;3.35;;;18.80;99.90;;;;;;5071621;28;20236;-72
2022/06/30 01:14:04;;;;;;;3.65;3.20;;;18.80;99.90;;;;;;5088210;28;20063;-72
2022/06/30 01:16:30;;;;;;;3.60;3.05;;;18.70;99.90;;;;;;5073504;28;20051;-72
2022/06/30 01:18:56;;;;;;;4.10;3.10;;;18.70;99.90;;;;;;5091644;28;20048;-72
2022/06/30 01:21:27;;;;;;;5.82;2.88;;;18.70;99.90;;;;;;5090825;28;20055;-72
2022/06/30 01:23:53;;;;;;;3.72;3.22;;;18.70;99.90;;;;;;5091605;28;20105;-72
2022/06/30 01:26:23;;;;;;;4.85;3.40;;;18.70;99.90;;;;;;5091631;28;20036;-72
2022/06/30 01:28:49;;;;;;;3.70;2.95;;;18.70;99.90;;;;;;5091541;28;20681;-72
2022/06/30 01:31:15;;;;;;;4.70;3.05;;;18.70;99.90;;;;;;5091372;28;20086;-72
2022/06/30 01:33:40;;;;;;;2.97;2.63;;;18.70;99.90;;;;;;5073558;28;20079;-72
2022/06/30 01:36:06;;;;;;;3.90;3.25;;;18.70;99.90;;;;;;5091285;28;20121;-72
2022/06/30 01:38:32;;;;;;;4.22;3.30;;;18.70;99.90;;;;;;5091434;28;20059;-72
2022/06/30 01:40:58;;;;;;;5.22;3.40;;;18.70;99.90;;;;;;5091180;28;20048;-72
2022/06/30 01:43:23;;;;;;;3.90;3.05;;;18.70;99.90;;;;;;5073263;28;20130;-72
2022/06/30 01:45:49;;;;;;;3.75;3.08;;;18.70;99.90;;;;;;5073176;28;20048;-72
2022/06/30 01:48:15;;;;;;;4.55;3.22;;;18.70;99.90;;;;;;5091728;28;20050;-72
2022/06/30 01:50:40;;;;;;;3.35;2.78;;;18.70;99.90;;;;;;5090997;28;20048;-72
2022/06/30 01:53:06;;;;;;;3.72;3.30;;;18.70;99.90;;;;;;5090390;28;20435;-73
2022/06/30 01:55:32;;;;;;;3.90;3.03;;;18.70;99.90;;;;;;5091294;28;20051;-72
2022/06/30 01:57:58;;;;;;;4.15;3.10;;;18.70;99.90;;;;;;5091224;28;20466;-72
2022/06/30 02:00:25;;;;;;;3.78;3.03;;;18.70;99.90;;;;;;5091121;28;20094;-73
2022/06/30 02:02:53;;;;;;;3.20;2.90;;;18.70;99.90;;;;;;5073093;28;20055;-72
2022/06/30 02:05:19;;;;;;;5.97;3.20;;;18.70;99.90;;;;;;5091276;28;20044;-72
2022/06/30 02:07:45;;;;;;;3.53;3.00;;;18.70;99.90;;;;;;5090986;28;20450;-73
2022/06/30 02:10:14;;;;;;;4.13;3.08;;;18.70;99.90;;;;;;5073035;28;20120;-73
2022/06/30 02:12:47;;;;;;;3.45;2.83;;;18.70;99.90;;;;;;5093871;28;20145;-72
2022/06/30 02:15:22;;;;;;;3.72;2.90;;;18.70;99.90;;;;;;5095122;28;20135;-72
2022/06/30 02:17:52;;;;;;;3.92;2.90;;;18.70;99.90;;;;;;5095042;28;20123;-72
2022/06/30 02:20:21;;;;;;;3.65;2.92;;;18.70;99.90;;;;;;5094970;28;20413;-72
2022/06/30 02:22:49;;;;;;;3.95;2.90;;;18.70;99.90;;;;;;5094421;28;20052;-72
2022/06/30 02:25:16;;;;;;;4.10;2.80;;;18.70;99.90;;;;;;5094952;28;20044;-72
2022/06/30 02:27:41;;;;;;;3.70;2.78;;;18.60;99.90;;;;;;5076824;28;20104;-72
2022/06/30 02:30:07;;;;;;;5.22;2.80;;;18.60;99.90;;;;;;5094759;28;20040;-72
2022/06/30 02:32:33;;;;;;;3.75;2.97;;;18.60;99.90;;;;;;5076844;28;20060;-72
2022/06/30 02:34:59;;;;;;;4.30;3.05;;;18.60;99.90;;;;;;5074127;28;20385;-72
2022/06/30 02:37:25;;;;;;;3.58;2.97;;;18.60;99.90;;;;;;5074424;28;20040;-72
2022/06/30 02:39:50;;;;;;;2.83;2.53;;;18.60;99.90;;;;;;5074043;28;20056;-72
2022/06/30 02:42:16;;;;;;;3.42;2.85;;;18.60;99.90;;;;;;5089253;28;20595;-72
2022/06/30 02:44:42;;;;;;;4.80;3.03;;;18.60;99.90;;;;;;5076409;28;20439;-72
2022/06/30 02:47:08;;;;;;;5.15;2.90;;;18.50;99.90;;;;;;5094606;28;20044;-72
2022/06/30 02:49:33;;;;;;;4.88;3.50;;;18.50;99.90;;;;;;5094426;28;20500;-72
2022/06/30 02:51:59;;;;;;;3.97;3.30;;;18.50;99.90;;;;;;5093590;28;20040;-72
2022/06/30 02:54:24;;;;;;;3.35;2.78;;;18.50;99.90;;;;;;5094417;28;20048;-72
2022/06/30 02:56:50;;;;;;;3.47;2.75;;;18.40;99.90;;;;;;5094316;28;20060;-73
2022/06/30 02:59:16;;;;;;;3.78;2.80;;;18.40;99.90;;;;;;5093942;28;20044;-72
2022/06/30 03:01:42;;;;;;;4.95;2.90;;;18.40;99.90;;;;;;5076136;28;20048;-72
2022/06/30 03:04:08;;;;;;;3.38;2.83;;;18.30;99.90;;;;;;5095901;28;20082;-72
2022/06/30 03:06:34;;;;;;;3.70;2.90;;;18.30;99.90;;;;;;5096448;28;20059;-72
2022/06/30 03:09:01;;;;;;;3.60;2.70;;;18.20;99.90;;;;;;5095418;28;20048;-73
2022/06/30 03:11:27;;;;;;;3.63;3.10;;;18.20;99.90;;;;;;5094075;28;20050;-73
2022/06/30 03:13:53;;;;;;;5.18;3.15;;;18.10;99.90;;;;;;5093984;28;20070;-73
2022/06/30 03:16:19;;;;;;;3.55;3.03;;;18.10;99.90;;;;;;5075553;28;20474;-73
2022/06/30 03:18:45;;;;;;;4.47;2.97;;;18.10;99.90;;;;;;5075876;28;20083;-73
2022/06/30 03:21:11;;;;;;;4.70;2.92;;;18.00;99.90;;;;;;5093174;28;20083;-73
2022/06/30 03:23:37;;;;;;;4.35;3.03;;;17.90;99.90;;;;;;5075399;28;20050;-72
2022/06/30 03:26:04;;;;;;;3.95;2.95;;;17.90;99.90;;;;;;5093861;28;20086;-72
2022/06/30 03:28:30;;;;;;;5.30;3.00;;;17.90;99.90;;;;;;5093750;28;20130;-72
2022/06/30 03:30:56;;;;;;;5.40;3.35;;;17.80;99.90;;;;;;5093501;28;20044;-73
2022/06/30 03:33:22;;;;;;;4.22;3.30;;;17.80;99.90;;;;;;5093431;28;20048;-72
2022/06/30 03:35:48;;;;;;;4.72;3.20;;;17.80;99.90;;;;;;5093588;28;20048;-72
2022/06/30 03:38:14;;;;;;;3.50;2.90;;;17.70;99.90;;;;;;5093283;28;20503;-72
2022/06/30 03:40:41;;;;;;;3.42;2.88;;;17.70;99.90;;;;;;5093312;28;20545;-72
2022/06/30 03:43:07;;;;;;;3.47;2.80;;;17.70;99.90;;;;;;5075216;28;20048;-72
2022/06/30 03:45:33;;;;;;;5.72;3.45;;;17.60;99.90;;;;;;5093438;28;20165;-72
2022/06/30 03:48:00;;;;;;;4.15;3.15;;;17.60;99.90;;;;;;5058999;28;20488;-72
2022/06/30 03:50:25;;;;;;;3.80;3.13;;;17.50;99.90;;;;;;5075453;28;20128;-72
2022/06/30 03:52:52;;;;;;;3.70;3.00;;;17.40;99.90;;;;;;5074634;28;20148;-72
2022/06/30 03:55:18;;;;;;;4.35;2.97;;;17.30;99.90;;;;;;5093121;28;20047;-72
2022/06/30 03:57:43;;;;;;;3.50;3.08;;;17.20;99.90;;;;;;5074934;28;20048;-72
2022/06/30 04:00:10;;;;;;;4.20;2.80;;;17.20;99.90;;;;;;5092962;28;20058;-72
2022/06/30 04:02:35;;;;;;;3.80;3.03;;;17.20;99.90;;;;;;5093099;28;20048;-72
2022/06/30 04:05:01;;;;;;;4.05;3.03;;;17.20;99.90;;;;;;5092932;28;20051;-72
2022/06/30 04:07:27;;;;;;;3.60;3.10;;;17.20;99.90;;;;;;5092715;28;20052;-72
2022/06/30 04:09:52;;;;;;;3.45;3.15;;;17.20;99.90;;;;;;5092617;28;20134;-73
2022/06/30 04:12:18;;;;;;;5.57;3.60;;;17.20;99.90;;;;;;5092531;28;20402;-72
2022/06/30 04:14:44;;;;;;;3.40;3.10;;;17.30;99.90;;;;;;5092935;28;20052;-72
2022/06/30 04:17:10;;;;;;;4.43;3.20;;;17.30;99.90;;;;;;5092540;28;20725;-72
2022/06/30 04:19:37;;;;;;;4.07;3.25;;;17.30;99.90;;;;;;5092679;28;20079;-72
2022/06/30 04:22:03;;;;;;;4.95;3.42;;;17.40;99.90;;;;;;5092103;28;20056;-72
2022/06/30 04:24:29;;;;;;;3.70;3.30;;;17.40;99.90;;;;;;5092647;28;20110;-72
2022/06/30 04:26:54;;;;;;;3.65;3.22;;;17.50;99.90;;;;;;5092865;28;20048;-73
2022/06/30 04:29:20;;;;;;;4.93;3.50;;;17.50;99.90;;;;;;5092074;28;20043;-73
2022/06/30 04:34:31;;;;;;;4.32;3.70;;;17.60;99.90;;;;;;5091299;28;20094;-72
2022/06/30 04:36:56;;;;;;;5.72;3.90;;;17.60;99.90;;;;;;5092029;28;20071;-72
2022/06/30 04:39:22;;;;;;;5.15;3.55;;;17.60;99.90;;;;;;5092553;28;20058;-72
2022/06/30 04:41:48;;;;;;;4.78;3.70;;;17.70;99.90;;;;;;5092106;28;20519;-74
2022/06/30 04:44:14;;;;;;;3.90;3.50;;;17.70;99.90;;;;;;5074145;28;20043;-73
2022/06/30 04:46:39;;;;;;;6.35;3.95;;;17.70;99.90;;;;;;5092091;28;20040;-73
2022/06/30 04:49:05;;;;;;;4.13;3.38;;;17.80;99.90;;;;;;5091777;28;20476;-72
2022/06/30 04:51:31;;;;;;;4.28;3.88;;;17.90;99.90;;;;;;5073575;28;20047;-72
2022/06/30 04:53:57;;;;;;;4.32;3.70;;;17.90;99.90;;;;;;5092114;28;20090;-72
2022/06/30 04:56:23;;;;;;;4.25;3.80;;;18.10;99.90;;;;;;5092021;28;20044;-72
2022/06/30 04:58:48;;;;;;;5.45;3.80;;;18.20;99.90;;;;;;5091730;28;20044;-72
2022/06/30 05:01:14;;;;;;;4.35;3.83;;;18.30;99.90;;;;;;5091877;28;20132;-73
2022/06/30 05:03:41;;;;;;;4.88;4.03;;;18.40;99.90;;;;;;5091674;28;20511;-72
2022/06/30 05:06:07;;;;;;;4.10;3.65;;;18.40;99.90;;;;;;5073633;28;20055;-73
2022/06/30 05:08:33;;;;;;;6.10;3.75;;;18.50;99.90;;;;;;5091859;28;20048;-73
2022/06/30 05:10:59;;;;;;;4.47;3.55;;;18.40;99.90;;;;;;5091870;28;20312;-72
2022/06/30 05:13:25;;;;;;;4.30;3.78;;;18.50;99.90;;;;;;5073280;28;20054;-72
2022/06/30 05:15:51;;;;;;;5.97;4.15;;;18.50;99.90;;;;;;5091592;28;20493;-72
2022/06/30 05:18:17;;;;;;;4.50;3.78;;;18.50;99.90;;;;;;5073355;28;20131;-72
2022/06/30 05:20:42;;;;;;;4.90;3.72;;;18.50;99.90;;;;;;5091578;28;20044;-72
2022/06/30 05:23:09;;;;;;;4.38;3.75;;;18.50;99.90;;;;;;5090983;28;20074;-72
2022/06/30 05:28:21;;;;;;;4.40;3.78;;;18.60;99.90;;;;;;5091583;28;20047;-72
2022/06/30 05:30:48;;;;;;;5.10;4.07;;;18.70;99.90;;;;;;5091574;28;20051;-72
2022/06/30 05:33:14;;;;;;;4.22;3.55;;;18.70;99.90;;;;;;5091287;28;20079;-72
2022/06/30 05:35:40;;;;;;;4.40;3.78;;;18.90;99.90;;;;;;5073399;28;20052;-72
2022/06/30 05:38:06;;;;;;;5.40;3.92;;;19.00;99.90;;;;;;5073066;28;20036;-72
2022/06/30 05:40:31;;;;;;;4.82;3.78;;;19.20;99.90;;;;;;5091239;28;20040;-73
2022/06/30 05:42:57;;;;;;;4.32;3.65;;;19.30;99.90;;;;;;5091587;28;20391;-72
2022/06/30 05:45:23;;;;;;;6.05;4.00;;;19.50;99.90;;;;;;5091310;28;20043;-72
2022/06/30 05:47:51;;;;;;;4.95;3.50;;;19.60;99.90;;;;;;5090871;28;20043;-72
2022/06/30 05:50:21;;;;;;;5.22;4.05;;;19.70;99.90;;;;;;5091286;28;20155;-72
2022/06/30 05:52:50;;;;;;;4.03;3.63;;;19.80;99.90;;;;;;5072503;28;20556;-72
2022/06/30 05:55:16;;;;;;;4.18;3.63;;;20.00;99.90;;;;;;5091129;28;20051;-72
2022/06/30 05:58:04;;;;;;;5.18;4.00;;;20.00;99.90;;;;;;5091126;28;20044;-73
2022/06/30 06:00:30;;;;;;;5.60;3.67;;;20.10;99.90;;;;;;5073084;28;20052;-72
2022/06/30 06:02:56;;;;;;;4.53;3.90;;;20.20;99.90;;;;;;5073057;28;20051;-73
2022/06/30 06:05:22;;;;;;;6.57;4.13;;;20.30;99.90;;;;;;5090997;28;20044;-72
2022/06/30 06:07:48;;;;;;;4.75;4.05;;;20.40;99.90;;;;;;5090827;28;20051;-72
2022/06/30 06:10:15;;;;;;;5.03;3.65;;;20.50;99.90;;;;;;5091038;28;20109;-66
2022/06/30 06:12:43;;;;;;;3.70;3.33;;;20.50;99.90;;;;;;5090720;28;20063;-66
2022/06/30 06:15:11;;;;;;;4.30;3.80;;;20.60;99.90;;;;;;5073171;28;20134;-66
2022/06/30 06:17:47;;;;;;;4.03;3.63;;;20.60;99.90;;;;;;5090917;28;20090;-66
2022/06/30 06:20:15;;;;;;;4.63;3.85;;;20.70;99.90;;;;;;5090746;28;20443;-67
2022/06/30 06:22:41;;;;;;;4.35;3.70;;;20.70;99.90;;;;;;5072447;28;20040;-66
2022/06/30 06:25:07;;;;;;;5.13;3.83;;;20.80;99.90;;;;;;5090890;28;20046;-66
2022/06/30 06:27:34;;;;;;;4.57;3.67;;;20.90;99.90;;;;;;5090887;28;20129;-67
2022/06/30 06:30:00;;;;;;;4.10;3.55;;;21.00;99.90;;;;;;5091037;28;20515;-66
2022/06/30 06:32:26;;;;;;;3.83;3.42;;;21.00;99.90;;;;;;5090820;28;20091;-66
2022/06/30 06:34:52;;;;;;;4.60;3.40;;;21.10;99.90;;;;;;5090212;28;20058;-65
2022/06/30 06:37:17;;;;;;;5.40;4.10;;;21.20;99.90;;;;;;5090530;28;20058;-65
2022/06/30 06:39:43;;;;;;;5.43;3.60;;;21.20;99.90;;;;;;5072571;28;20048;-65
2022/06/30 06:42:09;;;;;;;5.60;3.83;;;21.30;99.90;;;;;;5091026;28;20138;-65
2022/06/30 06:44:34;;;;;;;4.07;3.58;;;21.40;99.90;;;;;;5091060;28;20055;-65
2022/06/30 06:47:00;;;;;;;4.60;3.88;;;21.50;99.90;;;;;;5072615;28;20044;-65
2022/06/30 06:49:27;;;;;;;5.07;3.30;;;21.60;99.90;;;;;;5072434;28;20135;-65
2022/06/30 06:51:53;;;;;;;4.97;3.40;;;21.70;99.90;;;;;;5089631;28;20562;-65
2022/06/30 06:54:19;;;;;;;4.20;3.72;;;21.70;99.90;;;;;;5090596;28;20044;-65
2022/06/30 06:56:44;;;;;;;5.22;3.80;;;21.80;99.90;;;;;;5090216;28;20044;-65
2022/06/30 06:59:10;;;;;;;6.85;4.60;;;21.90;99.90;;;;;;5094269;28;20056;-65
2022/06/30 07:01:36;;;;;;;4.80;3.78;;;21.90;99.90;;;;;;5094152;28;20043;-65
2022/06/30 07:04:02;;;;;;;5.30;3.95;;;22.00;99.90;;;;;;5093969;28;20052;-65
2022/06/30 07:06:28;;;;;;;4.50;3.92;;;22.10;99.90;;;;;;5094178;28;20043;-65
2022/06/30 07:08:54;;;;;;;4.75;3.60;;;22.10;99.90;;;;;;5093975;28;20044;-65
2022/06/30 07:11:19;;;;;;;4.30;3.67;;;22.20;99.90;;;;;;5093969;28;20475;-65
2022/06/30 07:13:45;;;;;;;5.60;4.10;;;22.30;99.90;;;;;;5093892;28;20063;-66
2022/06/30 07:16:12;;;;;;;4.63;3.53;;;22.40;99.90;;;;;;5094115;28;20067;-66
2022/06/30 07:18:37;;;;;;;5.78;3.50;;;22.50;99.90;;;;;;5093901;28;20058;-65
2022/06/30 07:21:03;;;;;;;5.40;3.90;;;22.50;99.90;;;;;;5094003;28;20463;-65
2022/06/30 07:23:29;;;;;;;4.43;3.85;;;22.50;99.90;;;;;;5093230;28;20054;-65
2022/06/30 07:25:55;;;;;;;4.85;4.35;;;22.60;99.90;;;;;;5093735;28;20048;-66
2022/06/30 07:28:20;;;;;;;4.80;3.85;;;22.70;99.90;;;;;;5090894;28;20460;-68
2022/06/30 07:30:46;;;;;;;5.10;4.50;;;22.70;99.90;;;;;;5083942;28;20134;-65
2022/06/30 07:33:12;;;;;;;5.70;4.10;;;22.70;99.90;;;;;;5065679;28;20044;-66
2022/06/30 07:35:38;;;;;;;4.82;4.00;;;22.80;99.90;;;;;;5092911;28;20047;-66
2022/06/30 07:38:03;;;;;;;5.20;4.20;;;22.90;99.90;;;;;;5074771;28;20430;-66
2022/06/30 07:40:29;;;;;;;5.32;4.32;;;22.90;99.90;;;;;;5075169;28;20370;-66
2022/06/30 07:42:55;;;;;;;4.50;4.10;;;22.90;99.90;;;;;;5092612;28;20047;-67
2022/06/30 07:45:22;;;;;;;5.85;4.32;;;23.00;99.90;;;;;;5092579;28;20457;-66
2022/06/30 07:47:49;;;;;;;4.40;3.95;;;23.00;99.90;;;;;;5092945;28;20052;-66
2022/06/30 07:50:17;;;;;;;5.25;4.43;;;23.10;99.90;;;;;;5082395;28;20040;-66
2022/06/30 07:52:44;;;;;;;5.05;4.05;;;23.20;99.90;;;;;;5090931;28;20075;-66
2022/06/30 07:55:10;;;;;;;4.70;4.18;;;23.30;99.90;;;;;;5092332;28;20523;-66
2022/06/30 07:57:42;;;;;;;4.72;4.20;;;23.40;99.90;;;;;;5091981;28;20135;-65
2022/06/30 08:00:10;;;;;;;5.25;4.10;;;23.40;99.90;;;;;;5092852;28;20117;-66
2022/06/30 08:02:35;;;;;;;5.30;4.25;;;23.50;99.90;;;;;;5092776;28;20638;-66
2022/06/30 08:05:02;;;;;;;4.80;4.00;;;23.60;99.90;;;;;;5092921;28;20059;-66
2022/06/30 08:07:27;;;;;;;4.65;4.00;;;23.70;99.90;;;;;;5092253;28;20507;-66
2022/06/30 08:09:53;;;;;;;5.50;4.30;;;23.70;99.90;;;;;;5091357;28;20048;-67
2022/06/30 08:12:19;;;;;;;4.88;4.30;;;23.80;99.90;;;;;;5073639;28;20048;-66
2022/06/30 08:14:45;;;;;;;6.32;4.60;;;23.90;99.90;;;;;;5092241;28;20055;-67
2022/06/30 08:17:10;;;;;;;5.15;4.65;;;23.90;99.90;;;;;;5092703;28;20131;-66
2022/06/30 08:19:36;;;;;;;6.22;4.03;;;23.90;99.90;;;;;;5074296;28;20044;-68
2022/06/30 08:22:01;;;;;;;5.78;4.63;;;24.10;99.90;;;;;;5073449;28;20051;-67
2022/06/30 08:24:27;;;;;;;6.25;5.13;;;24.10;99.90;;;;;;5092432;28;20044;-67
2022/06/30 08:26:53;;;;;;;6.55;4.78;;;24.20;99.90;;;;;;5073918;28;20048;-68
2022/06/30 08:29:19;;;;;;;5.60;4.88;;;24.30;99.90;;;;;;5092222;28;20100;-67
2022/06/30 08:31:44;;;;;;;5.38;4.40;;;24.30;99.90;;;;;;5092000;28;20044;-66
2022/06/30 08:34:10;;;;;;;8.07;5.43;;;24.40;99.90;;;;;;5091821;28;20052;-67
2022/06/30 08:36:36;;;;;;;6.60;4.60;;;24.50;99.90;;;;;;5092130;28;20040;-66
2022/06/30 08:39:03;;;;;;;5.13;4.63;;;24.50;99.90;;;;;;5073915;28;20134;-67
2022/06/30 08:44:18;;;;;;;8.38;5.70;;;24.70;99.90;;;;;;5092012;28;20055;-66
2022/06/30 08:46:45;;;;;;;5.00;4.47;;;24.80;99.90;;;;;;5091920;28;20385;-66
2022/06/30 08:49:11;;;;;;;6.38;5.18;;;24.80;99.90;;;;;;5091802;28;20083;-66
2022/06/30 08:51:38;;;;;;;6.72;5.75;;;24.90;99.90;;;;;;5072960;28;20144;-67
2022/06/30 08:54:06;;;;;;;7.25;5.30;;;24.90;99.90;;;;;;5091555;28;20109;-67
2022/06/30 08:56:34;;;;;;;6.70;5.68;;;24.90;99.90;;;;;;5091148;28;20052;-66
2022/06/30 08:59:02;;;;;;;5.63;5.13;;;25.00;99.90;;;;;;5091811;28;20052;-67
2022/06/30 09:01:28;;;;;;;6.32;5.47;;;25.00;99.90;;;;;;5091094;28;20055;-67
2022/06/30 09:03:55;;;;;;;5.90;5.30;;;25.10;99.90;;;;;;5090661;28;20044;-67
2022/06/30 09:06:21;;;;;;;6.80;6.10;;;25.20;99.90;;;;;;5090634;28;20056;-67
2022/06/30 09:08:48;;;;;;;9.30;6.15;;;25.30;99.90;;;;;;5090612;28;20117;-66
2022/06/30 09:11:14;;;;;;;6.93;5.97;;;25.30;99.90;;;;;;5091062;28;20048;-68
2022/06/30 09:13:51;;;;;;;7.95;6.60;;;25.40;99.90;;;;;;5090555;28;20158;-67
2022/06/30 09:16:19;;;;;;;7.28;6.57;;;25.40;99.90;;;;;;5091603;28;20048;-67
2022/06/30 09:18:45;;;;;;;8.40;6.32;;;25.50;99.90;;;;;;5072392;28;20103;-67
2022/06/30 09:21:19;;;;;;;7.35;6.15;;;25.50;99.90;;;;;;5070691;28;20071;-67
2022/06/30 09:23:47;;;;;;;7.70;6.78;;;25.50;99.90;;;;;;5070331;28;20052;-67
2022/06/30 09:26:21;;;;;;;7.53;6.80;;;25.60;99.90;;;;;;5088031;28;20040;-67
2022/06/30 09:28:50;;;;;;;7.75;6.22;;;25.60;99.90;;;;;;5082333;28;20056;-67
2022/06/30 09:31:38;;;;;;;7.00;6.30;;;25.70;99.90;;;;;;5085698;28;20487;-67
2022/06/30 09:34:21;;;;;;;7.28;6.57;;;25.80;99.90;;;;;;5089221;28;20055;-67
2022/06/30 09:36:48;;;;;;;7.22;6.20;;;25.90;99.90;;;;;;5088526;28;20040;-68
2022/06/30 09:39:16;;;;;;;7.80;6.82;;;25.90;99.90;;;;;;5090629;28;20048;-67
2022/06/30 09:41:43;;;;;;;6.07;5.47;;;26.00;99.90;;;;;;5090126;28;20097;-67
2022/06/30 09:44:25;;;;;;;7.32;6.60;;;26.00;99.90;;;;;;5090078;28;20047;-67
2022/06/30 09:47:02;;;;;;;8.45;7.25;;;26.10;99.90;;;;;;5090075;28;20036;-67
2022/06/30 09:49:33;;;;;;;7.97;7.18;;;26.20;99.90;;;;;;5090272;28;20119;-67
2022/06/30 09:52:00;;;;;;;8.20;7.32;;;26.20;99.90;;;;;;5090207;28;20044;-69
2022/06/30 09:54:26;;;;;;;7.70;6.95;;;26.20;99.90;;;;;;5090802;28;20071;-69
2022/06/30 09:57:07;;;;;;;8.15;6.60;;;26.30;99.90;;;;;;5072946;28;20137;-66
2022/06/30 09:59:34;;;;;;;8.43;6.55;;;26.30;99.90;;;;;;5086535;28;20121;-65
2022/06/30 10:02:00;;;;;;;8.38;6.57;;;26.40;99.90;;;;;;5070490;28;20504;-66
2022/06/30 10:04:26;;;;;;;6.88;5.90;;;26.40;99.90;;;;;;5070367;28;20182;-66
2022/06/30 10:06:53;;;;;;;6.85;6.18;;;26.50;99.90;;;;;;5068795;28;20045;-67
2022/06/30 10:09:19;;;;;;;6.72;6.13;;;26.50;99.90;;;;;;5070382;28;20044;-68
2022/06/30 10:11:50;;;;;;;7.30;6.60;;;26.50;99.90;;;;;;5069990;28;20040;-67
2022/06/30 10:14:17;;;;;;;7.10;6.40;;;26.60;99.90;;;;;;5070349;28;20065;-68
2022/06/30 10:16:43;;;;;;;7.72;7.03;;;26.60;99.90;;;;;;5070338;28;20067;-66
2022/06/30 10:19:10;;;;;;;6.93;6.22;;;26.60;99.90;;;;;;5070271;28;20044;-68
2022/06/30 10:21:37;;;;;;;7.45;6.65;;;26.60;99.90;;;;;;5069655;28;20048;-67
2022/06/30 10:24:08;;;;;;;8.18;7.22;;;26.50;99.90;;;;;;5070239;28;20053;-68
2022/06/30 10:29:19;;;;;;;6.83;6.00;;;26.30;99.90;;;;;;5059682;28;20484;-67
2022/06/30 10:32:06;;;;;;;7.60;6.80;;;26.20;99.90;;;;;;5052390;28;20287;-67
2022/06/30 10:34:42;;;;;;;7.35;6.30;;;26.10;99.90;;;;;;5090120;28;20480;-67
2022/06/30 10:37:17;;;;;;;7.28;6.28;;;26.00;99.90;;;;;;5094206;28;20122;-68
2022/06/30 10:39:55;;;;;;;8.18;6.43;;;26.00;99.90;;;;;;5094139;28;20060;-67
2022/06/30 10:42:55;;;;;;;7.78;6.95;;;26.00;99.90;;;;;;5076032;28;20052;-68
2022/06/30 10:45:27;;;;;;;8.32;6.07;;;26.00;99.90;;;;;;5094298;28;20117;-67
2022/06/30 10:47:59;;;;;;;6.97;6.28;;;25.90;99.90;;;;;;5076207;28;20400;-68
2022/06/30 10:50:45;;;;;;;7.85;6.88;;;25.80;99.90;;;;;;5094055;28;20048;-68
2022/06/30 10:53:15;;;;;;;;;;;25.70;99.90;;;;;;5093531;28;20109;-68
2022/06/30 10:55:51;;;;;;;6.50;5.90;;;25.70;99.90;;;;;;5093682;28;19920;-68
2022/06/30 10:58:19;;;;;;;7.07;6.47;;;25.60;99.90;;;;;;5094160;28;20611;-67
2022/06/30 11:00:55;;;;;;;7.97;6.95;;;25.50;99.90;;;;;;5093802;28;20552;-67
2022/06/30 11:03:34;;;;;;;8.20;6.25;;;25.50;99.90;;;;;;5094010;28;20048;-67
2022/06/30 11:06:09;;;;;;;8.20;6.72;;;25.50;99.90;;;;;;5075502;28;20040;-68
2022/06/30 11:08:47;;;;;;;6.38;5.78;;;25.50;99.90;;;;;;5076008;28;20425;-67
2022/06/30 11:11:22;;;;;;;7.10;6.40;;;25.50;99.90;;;;;;5076014;28;20059;-67
2022/06/30 11:13:48;;;;;;;7.88;6.45;;;25.50;99.90;;;;;;5075213;28;20052;-67
2022/06/30 11:16:15;;;;;;;7.30;6.70;;;25.50;99.90;;;;;;5093448;28;20052;-68
2022/06/30 11:18:41;;;;;;;7.03;6.43;;;25.50;99.90;;;;;;5075730;28;20068;-67
2022/06/30 11:21:07;;;;;;;7.70;7.00;;;25.50;99.90;;;;;;5093673;28;20395;-67
2022/06/30 11:23:40;;;;;;;8.57;7.03;;;25.60;99.90;;;;;;5074831;28;20056;-67
2022/06/30 11:28:56;;;;;;;8.00;7.20;;;25.80;99.90;;;;;;5080017;28;20121;-67
2022/06/30 11:31:34;;;;;;;6.50;5.88;;;26.00;99.90;;;;;;5072409;28;20432;-67
2022/06/30 11:34:11;;;;;;;6.72;5.88;;;26.20;99.90;;;;;;5084846;28;20127;-67
2022/06/30 11:36:39;;;;;;;7.05;6.35;;;26.40;99.90;;;;;;5092482;28;20048;-67
2022/06/30 11:39:19;;;;;;;6.50;5.90;;;26.40;99.90;;;;;;5086419;28;20044;-67
2022/06/30 11:41:56;;;;;;;6.80;6.10;;;26.50;99.90;;;;;;5083074;28;20118;-67
2022/06/30 11:44:22;;;;;;;6.63;6.03;;;26.50;99.90;;;;;;5092905;28;20130;-67
2022/06/30 11:47:00;;;;;;;6.88;6.18;;;26.40;99.90;;;;;;5093509;28;20079;-69
2022/06/30 11:49:39;;;;;;;5.57;4.97;;;26.30;99.90;;;;;;5072228;28;20055;-68
2022/06/30 11:52:15;;;;;;;6.32;4.63;;;26.20;99.90;;;;;;5070714;28;20056;-69
2022/06/30 11:54:58;;;;;;;5.75;5.20;;;26.20;99.90;;;;;;5072547;28;20048;-68
2022/06/30 11:57:26;;;;;;;6.40;5.80;;;26.20;99.90;;;;;;5071563;28;20048;-70
2022/06/30 12:00:02;;;;;;;7.97;6.18;;;26.40;99.90;;;;;;5072487;28;20088;-68
2022/06/30 12:02:28;;;;;;;6.25;5.47;;;26.60;99.90;;;;;;5072342;28;20051;-67
2022/06/30 12:04:56;;;;;;;6.70;6.05;;;26.80;99.90;;;;;;5072292;28;20048;-68
2022/06/30 12:07:23;;;;;;;6.85;5.70;;;27.00;99.90;;;;;;5072181;28;20056;-68
2022/06/30 12:09:52;;;;;;;4.10;3.70;;;27.10;99.90;;;;;;5070664;28;20044;-68
2022/06/30 12:12:26;;;;;;;3.90;3.50;;;27.10;99.90;;;;;;5072176;28;20044;-69
2022/06/30 12:14:58;;;;;;;5.55;3.85;;;27.20;99.90;;;;;;5072350;28;20413;-69
2022/06/30 12:17:29;;;;;;;4.35;3.40;;;27.20;99.90;;;;;;5072200;28;20440;-69
2022/06/30 12:19:55;;;;;;;4.78;3.83;;;27.20;99.90;;;;;;5072020;28;20057;-68
2022/06/30 12:22:20;;;;;;;4.35;3.45;;;27.20;99.90;;;;;;5070643;28;20613;-68
2022/06/30 12:24:48;;;;;;;4.90;3.45;;;27.20;99.90;;;;;;5076445;28;20127;-69
2022/06/30 12:27:38;;;;;;;4.10;3.20;;;27.20;99.90;;;;;;5092179;28;20048;-68
2022/06/30 12:30:15;;;;;;;3.42;2.90;;;27.30;99.90;;;;;;5074643;28;20052;-68
2022/06/30 12:32:41;;;;;;;3.13;2.60;;;27.30;99.90;;;;;;5092063;28;20459;-68
2022/06/30 12:35:12;;;;;;;3.90;2.75;;;27.40;99.90;;;;;;5091571;28;20484;-68
2022/06/30 12:37:41;;;;;;;3.05;2.65;;;27.40;99.90;;;;;;5091554;28;20087;-68
2022/06/30 12:40:10;;;;;;;4.00;2.80;;;27.50;99.90;;;;;;5087002;28;20043;-70
2022/06/30 12:42:45;;;;;;;3.25;2.60;;;27.50;99.90;;;;;;5089428;28;20044;-68
2022/06/30 12:45:33;;;;;;;3.00;2.70;;;27.60;99.90;;;;;;5091860;28;20135;-67
2022/06/30 12:47:58;;;;;;;2.72;2.40;;;27.60;99.90;;;;;;5091715;28;20095;-67
2022/06/30 12:50:24;;;;;;;2.70;2.30;;;27.70;99.90;;;;;;5091823;28;20357;-68
2022/06/30 12:52:50;;;;;;;4.95;3.08;;;27.80;99.90;;;;;;5091368;28;20186;-67
2022/06/30 12:55:16;;;;;;;3.35;2.50;;;27.90;99.90;;;;;;5073211;28;20071;-68
2022/06/30 12:57:47;;;;;;;4.53;2.70;;;27.90;99.90;;;;;;5091789;28;20602;-68
2022/06/30 13:00:14;;;;;;;6.10;5.50;;;27.80;99.90;;;;;;5073855;28;20044;-67
2022/06/30 13:02:40;;;;;;;4.30;2.65;;;27.80;99.90;;;;;;5091809;28;20465;-68
2022/06/30 13:05:13;;;;;;;4.72;2.90;;;27.90;99.90;;;;;;5091752;28;20044;-67
2022/06/30 13:07:40;;;;;;;4.93;3.10;;;27.80;99.90;;;;;;5091162;28;20494;-67